sensor_id;sensor_type;location;lat;lon;timestamp;P1;durP1;ratioP1;P2;durP2;ratioP2
17997;SDS011;9124;48.144;17.098;2022-09-20T00:01:33;2.35;;;1.23;;
17997;SDS011;9124;48.144;17.098;2022-09-20T00:05:10;4.28;;;1.67;;
17997;SDS011;9124;48.144;17.098;2022-09-20T00:08:47;1.85;;;1.10;;
17997;SDS011;9124;48.144;17.098;2022-09-20T00:12:24;1.60;;;1.50;;
17997;SDS011;9124;48.144;17.098;2022-09-20T00:16:09;1.50;;;1.50;;
17997;SDS011;9124;48.144;17.098;2022-09-20T00:19:48;8.23;;;1.70;;
17997;SDS011;9124;48.144;17.098;2022-09-20T00:23:25;1.60;;;1.50;;
17997;SDS011;9124;48.144;17.098;2022-09-20T00:27:02;2.25;;;1.67;;
17997;SDS011;9124;48.144;17.098;2022-09-20T00:30:39;3.03;;;1.88;;
17997;SDS011;9124;48.144;17.098;2022-09-20T00:34:16;2.28;;;2.08;;
17997;SDS011;9124;48.144;17.098;2022-09-20T00:38:12;3.33;;;1.73;;
17997;SDS011;9124;48.144;17.098;2022-09-20T00:46:33;2.95;;;2.10;;
17997;SDS011;9124;48.144;17.098;2022-09-20T00:50:39;3.97;;;2.40;;
17997;SDS011;9124;48.144;17.098;2022-09-20T00:54:19;2.28;;;2.17;;
17997;SDS011;9124;48.144;17.098;2022-09-20T00:57:57;2.05;;;1.95;;
17997;SDS011;9124;48.144;17.098;2022-09-20T01:01:35;5.13;;;1.95;;
17997;SDS011;9124;48.144;17.098;2022-09-20T01:05:12;2.60;;;2.10;;
17997;SDS011;9124;48.144;17.098;2022-09-20T01:08:51;5.80;;;1.98;;
17997;SDS011;9124;48.144;17.098;2022-09-20T01:12:31;2.15;;;1.90;;
17997;SDS011;9124;48.144;17.098;2022-09-20T01:16:11;5.88;;;2.15;;
17997;SDS011;9124;48.144;17.098;2022-09-20T01:24:09;3.08;;;1.60;;
17997;SDS011;9124;48.144;17.098;2022-09-20T01:28:15;2.63;;;1.60;;
17997;SDS011;9124;48.144;17.098;2022-09-20T01:31:53;1.83;;;1.73;;
17997;SDS011;9124;48.144;17.098;2022-09-20T01:35:33;2.90;;;1.98;;
17997;SDS011;9124;48.144;17.098;2022-09-20T01:43:00;2.67;;;2.13;;
17997;SDS011;9124;48.144;17.098;2022-09-20T01:46:55;1.70;;;1.60;;
17997;SDS011;9124;48.144;17.098;2022-09-20T02:02:35;3.20;;;2.97;;
17997;SDS011;9124;48.144;17.098;2022-09-20T02:10:42;3.13;;;2.30;;
17997;SDS011;9124;48.144;17.098;2022-09-20T02:14:46;2.00;;;1.90;;
17997;SDS011;9124;48.144;17.098;2022-09-20T02:31:01;2.53;;;2.00;;
17997;SDS011;9124;48.144;17.098;2022-09-20T03:11:38;3.00;;;2.65;;
17997;SDS011;9124;48.144;17.098;2022-09-20T03:29:17;3.75;;;1.75;;
17997;SDS011;9124;48.144;17.098;2022-09-20T03:41:14;1.85;;;1.33;;
17997;SDS011;9124;48.144;17.098;2022-09-20T03:45:59;2.25;;;1.40;;
17997;SDS011;9124;48.144;17.098;2022-09-20T03:57:22;1.80;;;1.70;;
17997;SDS011;9124;48.144;17.098;2022-09-20T04:21:06;4.20;;;2.00;;
17997;SDS011;9124;48.144;17.098;2022-09-20T04:28:59;2.70;;;2.50;;
17997;SDS011;9124;48.144;17.098;2022-09-20T04:40:20;4.55;;;1.95;;
17997;SDS011;9124;48.144;17.098;2022-09-20T04:48:08;1.85;;;1.75;;
17997;SDS011;9124;48.144;17.098;2022-09-20T05:15:38;2.10;;;1.90;;
17997;SDS011;9124;48.144;17.098;2022-09-20T05:27:06;2.80;;;2.10;;
17997;SDS011;9124;48.144;17.098;2022-09-20T05:40:28;2.33;;;1.40;;
17997;SDS011;9124;48.144;17.098;2022-09-20T05:56:48;2.17;;;1.88;;
17997;SDS011;9124;48.144;17.098;2022-09-20T06:00:52;0.88;;;0.88;;
17997;SDS011;9124;48.144;17.098;2022-09-20T06:16:57;1.65;;;1.10;;
17997;SDS011;9124;48.144;17.098;2022-09-20T06:20:56;0.90;;;0.90;;
17997;SDS011;9124;48.144;17.098;2022-09-20T06:24:36;1.00;;;1.00;;
17997;SDS011;9124;48.144;17.098;2022-09-20T06:32:15;1.35;;;1.08;;
17997;SDS011;9124;48.144;17.098;2022-09-20T06:35:59;1.10;;;1.00;;
17997;SDS011;9124;48.144;17.098;2022-09-20T06:44:31;1.05;;;0.90;;
17997;SDS011;9124;48.144;17.098;2022-09-20T06:48:08;2.30;;;1.02;;
17997;SDS011;9124;48.144;17.098;2022-09-20T06:51:47;2.65;;;1.10;;
17997;SDS011;9124;48.144;17.098;2022-09-20T06:55:28;0.90;;;0.68;;
17997;SDS011;9124;48.144;17.098;2022-09-20T06:59:07;1.05;;;0.80;;
17997;SDS011;9124;48.144;17.098;2022-09-20T07:02:46;1.05;;;0.82;;
17997;SDS011;9124;48.144;17.098;2022-09-20T07:06:24;0.50;;;0.50;;
17997;SDS011;9124;48.144;17.098;2022-09-20T07:10:01;0.60;;;0.60;;
17997;SDS011;9124;48.144;17.098;2022-09-20T07:13:38;0.60;;;0.60;;
17997;SDS011;9124;48.144;17.098;2022-09-20T07:17:15;2.97;;;0.80;;
17997;SDS011;9124;48.144;17.098;2022-09-20T07:20:54;0.40;;;0.40;;
17997;SDS011;9124;48.144;17.098;2022-09-20T07:24:33;0.98;;;0.98;;
17997;SDS011;9124;48.144;17.098;2022-09-20T07:28:10;1.02;;;1.00;;
17997;SDS011;9124;48.144;17.098;2022-09-20T07:31:46;0.55;;;0.55;;
17997;SDS011;9124;48.144;17.098;2022-09-20T07:35:24;1.52;;;1.23;;
17997;SDS011;9124;48.144;17.098;2022-09-20T07:39:01;0.55;;;0.55;;
17997;SDS011;9124;48.144;17.098;2022-09-20T07:42:38;2.25;;;0.75;;
17997;SDS011;9124;48.144;17.098;2022-09-20T07:46:15;3.60;;;0.60;;
17997;SDS011;9124;48.144;17.098;2022-09-20T07:49:52;2.60;;;0.95;;
17997;SDS011;9124;48.144;17.098;2022-09-20T07:53:30;1.52;;;0.85;;
17997;SDS011;9124;48.144;17.098;2022-09-20T07:57:07;1.27;;;1.17;;
17997;SDS011;9124;48.144;17.098;2022-09-20T08:00:54;1.10;;;0.98;;
17997;SDS011;9124;48.144;17.098;2022-09-20T08:04:32;2.78;;;1.02;;
17997;SDS011;9124;48.144;17.098;2022-09-20T08:08:09;2.75;;;1.10;;
17997;SDS011;9124;48.144;17.098;2022-09-20T08:11:46;1.83;;;1.50;;
17997;SDS011;9124;48.144;17.098;2022-09-20T08:15:24;2.35;;;1.13;;
17997;SDS011;9124;48.144;17.098;2022-09-20T08:19:01;2.00;;;1.17;;
17997;SDS011;9124;48.144;17.098;2022-09-20T08:22:38;6.20;;;1.25;;
17997;SDS011;9124;48.144;17.098;2022-09-20T08:26:19;1.83;;;0.80;;
17997;SDS011;9124;48.144;17.098;2022-09-20T08:30:00;1.58;;;1.10;;
17997;SDS011;9124;48.144;17.098;2022-09-20T08:33:36;2.05;;;1.25;;
17997;SDS011;9124;48.144;17.098;2022-09-20T08:37:13;6.60;;;1.20;;
17997;SDS011;9124;48.144;17.098;2022-09-20T08:40:50;0.80;;;0.77;;
17997;SDS011;9124;48.144;17.098;2022-09-20T08:44:45;1.42;;;1.02;;
17997;SDS011;9124;48.144;17.098;2022-09-20T08:53:13;1.08;;;0.98;;
17997;SDS011;9124;48.144;17.098;2022-09-20T08:56:51;1.33;;;0.75;;
17997;SDS011;9124;48.144;17.098;2022-09-20T09:00:29;0.98;;;0.90;;
17997;SDS011;9124;48.144;17.098;2022-09-20T09:04:21;0.63;;;0.60;;
17997;SDS011;9124;48.144;17.098;2022-09-20T09:08:10;1.33;;;0.70;;
17997;SDS011;9124;48.144;17.098;2022-09-20T09:11:52;1.13;;;0.70;;
17997;SDS011;9124;48.144;17.098;2022-09-20T09:15:34;4.72;;;0.90;;
17997;SDS011;9124;48.144;17.098;2022-09-20T09:19:29;1.52;;;0.75;;
17997;SDS011;9124;48.144;17.098;2022-09-20T09:23:30;1.17;;;0.80;;
17997;SDS011;9124;48.144;17.098;2022-09-20T09:27:20;2.53;;;0.68;;
17997;SDS011;9124;48.144;17.098;2022-09-20T09:35:24;3.42;;;0.80;;
17997;SDS011;9124;48.144;17.098;2022-09-20T09:39:21;0.63;;;0.55;;
17997;SDS011;9124;48.144;17.098;2022-09-20T09:43:04;5.13;;;0.90;;
17997;SDS011;9124;48.144;17.098;2022-09-20T09:46:43;0.90;;;0.50;;
17997;SDS011;9124;48.144;17.098;2022-09-20T09:50:23;0.93;;;0.50;;
17997;SDS011;9124;48.144;17.098;2022-09-20T09:54:05;0.50;;;0.50;;
17997;SDS011;9124;48.144;17.098;2022-09-20T09:57:55;2.28;;;0.57;;
17997;SDS011;9124;48.144;17.098;2022-09-20T10:06:56;0.90;;;0.80;;
17997;SDS011;9124;48.144;17.098;2022-09-20T10:18:19;1.00;;;0.65;;
17997;SDS011;9124;48.144;17.098;2022-09-20T10:30:15;1.50;;;1.00;;
17997;SDS011;9124;48.144;17.098;2022-09-20T10:38:29;0.85;;;0.80;;
17997;SDS011;9124;48.144;17.098;2022-09-20T10:43:21;3.05;;;0.63;;
17997;SDS011;9124;48.144;17.098;2022-09-20T10:50:46;0.68;;;0.68;;
17997;SDS011;9124;48.144;17.098;2022-09-20T10:55:16;0.63;;;0.60;;
17997;SDS011;9124;48.144;17.098;2022-09-20T10:58:57;1.10;;;0.70;;
17997;SDS011;9124;48.144;17.098;2022-09-20T11:07:15;0.63;;;0.60;;
17997;SDS011;9124;48.144;17.098;2022-09-20T11:11:20;0.70;;;0.63;;
17997;SDS011;9124;48.144;17.098;2022-09-20T11:18:53;1.58;;;0.90;;
17997;SDS011;9124;48.144;17.098;2022-09-20T11:26:45;5.10;;;1.38;;
17997;SDS011;9124;48.144;17.098;2022-09-20T11:30:26;0.75;;;0.65;;
17997;SDS011;9124;48.144;17.098;2022-09-20T11:38:10;0.70;;;0.70;;
17997;SDS011;9124;48.144;17.098;2022-09-20T11:42:03;4.90;;;1.33;;
17997;SDS011;9124;48.144;17.098;2022-09-20T11:55:13;2.47;;;0.57;;
17997;SDS011;9124;48.144;17.098;2022-09-20T11:59:03;3.15;;;1.17;;
17997;SDS011;9124;48.144;17.098;2022-09-20T12:02:50;1.00;;;0.70;;
17997;SDS011;9124;48.144;17.098;2022-09-20T12:06:29;2.83;;;0.50;;
17997;SDS011;9124;48.144;17.098;2022-09-20T12:14:18;1.85;;;0.70;;
17997;SDS011;9124;48.144;17.098;2022-09-20T12:18:11;1.67;;;0.73;;
17997;SDS011;9124;48.144;17.098;2022-09-20T12:25:37;1.02;;;0.63;;
17997;SDS011;9124;48.144;17.098;2022-09-20T12:33:16;1.67;;;0.70;;
17997;SDS011;9124;48.144;17.098;2022-09-20T12:40:33;3.17;;;0.68;;
17997;SDS011;9124;48.144;17.098;2022-09-20T12:48:14;0.50;;;0.50;;
17997;SDS011;9124;48.144;17.098;2022-09-20T12:51:54;1.52;;;0.40;;
17997;SDS011;9124;48.144;17.098;2022-09-20T12:59:38;1.85;;;0.35;;
17997;SDS011;9124;48.144;17.098;2022-09-20T13:03:32;0.73;;;0.40;;
17997;SDS011;9124;48.144;17.098;2022-09-20T13:07:31;2.35;;;0.30;;
17997;SDS011;9124;48.144;17.098;2022-09-20T13:11:22;0.70;;;0.30;;
17997;SDS011;9124;48.144;17.098;2022-09-20T13:15:04;0.38;;;0.38;;
17997;SDS011;9124;48.144;17.098;2022-09-20T13:18:43;0.38;;;0.38;;
17997;SDS011;9124;48.144;17.098;2022-09-20T13:22:21;0.47;;;0.47;;
17997;SDS011;9124;48.144;17.098;2022-09-20T13:26:11;0.70;;;0.35;;
17997;SDS011;9124;48.144;17.098;2022-09-20T13:35:06;0.30;;;0.30;;
17997;SDS011;9124;48.144;17.098;2022-09-20T13:38:45;3.25;;;2.53;;
17997;SDS011;9124;48.144;17.098;2022-09-20T13:42:24;2.28;;;0.75;;
17997;SDS011;9124;48.144;17.098;2022-09-20T13:46:14;0.60;;;0.55;;
17997;SDS011;9124;48.144;17.098;2022-09-20T13:50:00;1.05;;;1.05;;
17997;SDS011;9124;48.144;17.098;2022-09-20T13:53:46;0.68;;;0.68;;
17997;SDS011;9124;48.144;17.098;2022-09-20T13:57:26;0.50;;;0.50;;
17997;SDS011;9124;48.144;17.098;2022-09-20T14:01:06;0.40;;;0.40;;
17997;SDS011;9124;48.144;17.098;2022-09-20T14:04:57;1.10;;;0.50;;
17997;SDS011;9124;48.144;17.098;2022-09-20T14:08:39;1.35;;;0.60;;
17997;SDS011;9124;48.144;17.098;2022-09-20T14:12:20;1.00;;;0.70;;
17997;SDS011;9124;48.144;17.098;2022-09-20T14:15:59;0.40;;;0.40;;
17997;SDS011;9124;48.144;17.098;2022-09-20T14:19:39;3.03;;;0.70;;
17997;SDS011;9124;48.144;17.098;2022-09-20T14:23:21;1.92;;;0.50;;
17997;SDS011;9124;48.144;17.098;2022-09-20T14:27:04;0.55;;;0.50;;
17997;SDS011;9124;48.144;17.098;2022-09-20T14:31:02;0.68;;;0.68;;
17997;SDS011;9124;48.144;17.098;2022-09-20T14:34:42;0.63;;;0.60;;
17997;SDS011;9124;48.144;17.098;2022-09-20T14:38:23;1.52;;;0.65;;
17997;SDS011;9124;48.144;17.098;2022-09-20T14:42:02;1.45;;;0.75;;
17997;SDS011;9124;48.144;17.098;2022-09-20T14:45:39;4.07;;;1.63;;
17997;SDS011;9124;48.144;17.098;2022-09-20T14:49:36;1.48;;;0.73;;
17997;SDS011;9124;48.144;17.098;2022-09-20T14:53:23;0.52;;;0.52;;
17997;SDS011;9124;48.144;17.098;2022-09-20T14:57:04;12.70;;;9.52;;
17997;SDS011;9124;48.144;17.098;2022-09-20T15:00:51;4.15;;;1.80;;
17997;SDS011;9124;48.144;17.098;2022-09-20T15:04:59;2.10;;;2.00;;
17997;SDS011;9124;48.144;17.098;2022-09-20T15:08:37;3.70;;;3.40;;
17997;SDS011;9124;48.144;17.098;2022-09-20T15:15:52;4.93;;;1.33;;
17997;SDS011;9124;48.144;17.098;2022-09-20T15:19:30;1.27;;;1.17;;
17997;SDS011;9124;48.144;17.098;2022-09-20T15:23:07;5.57;;;1.83;;
17997;SDS011;9124;48.144;17.098;2022-09-20T15:26:43;1.73;;;1.63;;
17997;SDS011;9124;48.144;17.098;2022-09-20T15:30:20;2.50;;;2.30;;
17997;SDS011;9124;48.144;17.098;2022-09-20T15:33:57;2.38;;;1.80;;
17997;SDS011;9124;48.144;17.098;2022-09-20T15:37:34;1.83;;;1.73;;
17997;SDS011;9124;48.144;17.098;2022-09-20T15:41:11;1.70;;;1.60;;
17997;SDS011;9124;48.144;17.098;2022-09-20T15:54:20;1.85;;;1.75;;
17997;SDS011;9124;48.144;17.098;2022-09-20T15:57:56;4.63;;;2.55;;
17997;SDS011;9124;48.144;17.098;2022-09-20T16:01:34;6.13;;;5.63;;
17997;SDS011;9124;48.144;17.098;2022-09-20T16:05:13;3.35;;;3.10;;
17997;SDS011;9124;48.144;17.098;2022-09-20T16:08:50;3.47;;;3.17;;
17997;SDS011;9124;48.144;17.098;2022-09-20T16:12:27;2.40;;;2.15;;
17997;SDS011;9124;48.144;17.098;2022-09-20T16:16:05;2.08;;;1.98;;
17997;SDS011;9124;48.144;17.098;2022-09-20T16:19:44;2.63;;;2.47;;
17997;SDS011;9124;48.144;17.098;2022-09-20T16:23:22;2.05;;;1.95;;
17997;SDS011;9124;48.144;17.098;2022-09-20T16:26:59;2.00;;;1.88;;
17997;SDS011;9124;48.144;17.098;2022-09-20T16:30:37;1.38;;;1.38;;
17997;SDS011;9124;48.144;17.098;2022-09-20T16:34:21;4.43;;;1.40;;
17997;SDS011;9124;48.144;17.098;2022-09-20T16:38:04;1.13;;;1.02;;
17997;SDS011;9124;48.144;17.098;2022-09-20T16:41:44;1.30;;;1.20;;
17997;SDS011;9124;48.144;17.098;2022-09-20T16:45:22;1.00;;;1.00;;
17997;SDS011;9124;48.144;17.098;2022-09-20T16:48:59;1.00;;;0.98;;
17997;SDS011;9124;48.144;17.098;2022-09-20T16:52:35;1.95;;;0.70;;
17997;SDS011;9124;48.144;17.098;2022-09-20T16:56:18;0.80;;;0.80;;
17997;SDS011;9124;48.144;17.098;2022-09-20T17:00:02;1.00;;;1.00;;
17997;SDS011;9124;48.144;17.098;2022-09-20T17:03:39;1.98;;;1.77;;
17997;SDS011;9124;48.144;17.098;2022-09-20T17:07:16;1.55;;;1.30;;
17997;SDS011;9124;48.144;17.098;2022-09-20T17:10:57;2.42;;;1.23;;
17997;SDS011;9124;48.144;17.098;2022-09-20T17:14:37;2.58;;;1.00;;
17997;SDS011;9124;48.144;17.098;2022-09-20T17:18:14;1.08;;;1.02;;
17997;SDS011;9124;48.144;17.098;2022-09-20T17:21:50;1.30;;;1.20;;
17997;SDS011;9124;48.144;17.098;2022-09-20T17:25:28;1.58;;;1.25;;
17997;SDS011;9124;48.144;17.098;2022-09-20T17:29:06;1.42;;;1.33;;
17997;SDS011;9124;48.144;17.098;2022-09-20T17:32:45;3.50;;;2.40;;
17997;SDS011;9124;48.144;17.098;2022-09-20T17:36:29;2.00;;;1.80;;
17997;SDS011;9124;48.144;17.098;2022-09-20T17:40:08;2.10;;;1.90;;
17997;SDS011;9124;48.144;17.098;2022-09-20T17:43:45;1.70;;;1.60;;
17997;SDS011;9124;48.144;17.098;2022-09-20T17:47:23;2.20;;;2.05;;
17997;SDS011;9124;48.144;17.098;2022-09-20T17:51:00;3.13;;;2.80;;
17997;SDS011;9124;48.144;17.098;2022-09-20T17:54:38;4.10;;;2.50;;
17997;SDS011;9124;48.144;17.098;2022-09-20T17:58:14;3.10;;;2.67;;
17997;SDS011;9124;48.144;17.098;2022-09-20T18:01:51;1.60;;;1.50;;
17997;SDS011;9124;48.144;17.098;2022-09-20T18:16:14;1.67;;;1.58;;
17997;SDS011;9124;48.144;17.098;2022-09-20T18:19:53;1.55;;;1.50;;
17997;SDS011;9124;48.144;17.098;2022-09-20T18:23:29;1.80;;;1.70;;
17997;SDS011;9124;48.144;17.098;2022-09-20T18:27:06;2.30;;;2.20;;
17997;SDS011;9124;48.144;17.098;2022-09-20T18:30:43;2.33;;;2.13;;
17997;SDS011;9124;48.144;17.098;2022-09-20T18:34:25;2.38;;;2.17;;
17997;SDS011;9124;48.144;17.098;2022-09-20T18:38:06;2.85;;;2.15;;
17997;SDS011;9124;48.144;17.098;2022-09-20T18:41:47;1.90;;;1.80;;
17997;SDS011;9124;48.144;17.098;2022-09-20T18:45:24;2.58;;;1.73;;
17997;SDS011;9124;48.144;17.098;2022-09-20T18:49:03;2.00;;;1.83;;
17997;SDS011;9124;48.144;17.098;2022-09-20T18:52:41;3.30;;;3.05;;
17997;SDS011;9124;48.144;17.098;2022-09-20T18:56:28;2.80;;;2.40;;
17997;SDS011;9124;48.144;17.098;2022-09-20T19:00:08;2.00;;;1.90;;
17997;SDS011;9124;48.144;17.098;2022-09-20T19:11:54;3.10;;;2.90;;
17997;SDS011;9124;48.144;17.098;2022-09-20T19:16:01;3.65;;;2.80;;
17997;SDS011;9124;48.144;17.098;2022-09-20T19:19:53;3.53;;;3.22;;
17997;SDS011;9124;48.144;17.098;2022-09-20T19:27:31;4.40;;;4.10;;
17997;SDS011;9124;48.144;17.098;2022-09-20T19:35:08;3.78;;;3.58;;
17997;SDS011;9124;48.144;17.098;2022-09-20T19:39:03;2.90;;;2.70;;
17997;SDS011;9124;48.144;17.098;2022-09-20T19:42:59;2.80;;;2.60;;
17997;SDS011;9124;48.144;17.098;2022-09-20T19:47:05;3.17;;;2.30;;
17997;SDS011;9124;48.144;17.098;2022-09-20T19:50:48;4.22;;;3.40;;
17997;SDS011;9124;48.144;17.098;2022-09-20T19:54:29;2.10;;;2.00;;
17997;SDS011;9124;48.144;17.098;2022-09-20T19:58:07;4.35;;;2.22;;
17997;SDS011;9124;48.144;17.098;2022-09-20T20:01:44;3.00;;;2.80;;
17997;SDS011;9124;48.144;17.098;2022-09-20T20:10:59;2.83;;;2.50;;
17997;SDS011;9124;48.144;17.098;2022-09-20T20:40:22;4.15;;;2.60;;
17997;SDS011;9124;48.144;17.098;2022-09-20T20:43:58;2.80;;;2.60;;
17997;SDS011;9124;48.144;17.098;2022-09-20T20:47:35;3.33;;;2.85;;
17997;SDS011;9124;48.144;17.098;2022-09-20T20:51:14;4.78;;;3.10;;
17997;SDS011;9124;48.144;17.098;2022-09-20T20:54:53;4.38;;;3.47;;
17997;SDS011;9124;48.144;17.098;2022-09-20T20:58:30;3.50;;;3.20;;
17997;SDS011;9124;48.144;17.098;2022-09-20T21:02:10;4.22;;;3.88;;
17997;SDS011;9124;48.144;17.098;2022-09-20T21:05:52;6.47;;;3.90;;
17997;SDS011;9124;48.144;17.098;2022-09-20T21:09:30;4.10;;;3.70;;
17997;SDS011;9124;48.144;17.098;2022-09-20T21:13:06;3.85;;;3.55;;
17997;SDS011;9124;48.144;17.098;2022-09-20T21:16:43;4.30;;;4.00;;
17997;SDS011;9124;48.144;17.098;2022-09-20T21:20:20;4.28;;;3.88;;
17997;SDS011;9124;48.144;17.098;2022-09-20T21:29:26;6.68;;;3.70;;
17997;SDS011;9124;48.144;17.098;2022-09-20T21:33:03;5.38;;;4.18;;
17997;SDS011;9124;48.144;17.098;2022-09-20T21:36:40;4.13;;;3.72;;
17997;SDS011;9124;48.144;17.098;2022-09-20T21:40:17;4.35;;;3.92;;
17997;SDS011;9124;48.144;17.098;2022-09-20T21:43:55;3.20;;;2.85;;
17997;SDS011;9124;48.144;17.098;2022-09-20T21:47:37;4.10;;;2.75;;
17997;SDS011;9124;48.144;17.098;2022-09-20T21:51:15;3.47;;;3.13;;
17997;SDS011;9124;48.144;17.098;2022-09-20T21:54:53;3.13;;;2.85;;
17997;SDS011;9124;48.144;17.098;2022-09-20T21:58:31;3.28;;;3.00;;
17997;SDS011;9124;48.144;17.098;2022-09-20T22:02:09;7.18;;;2.97;;
17997;SDS011;9124;48.144;17.098;2022-09-20T22:05:45;4.68;;;3.10;;
17997;SDS011;9124;48.144;17.098;2022-09-20T22:09:23;5.07;;;2.42;;
17997;SDS011;9124;48.144;17.098;2022-09-20T22:13:00;6.55;;;2.85;;
17997;SDS011;9124;48.144;17.098;2022-09-20T22:16:38;3.20;;;2.58;;
17997;SDS011;9124;48.144;17.098;2022-09-20T22:20:15;2.58;;;2.40;;
17997;SDS011;9124;48.144;17.098;2022-09-20T22:23:53;3.38;;;2.60;;
17997;SDS011;9124;48.144;17.098;2022-09-20T22:27:35;2.67;;;2.47;;
17997;SDS011;9124;48.144;17.098;2022-09-20T22:31:13;4.32;;;3.00;;
17997;SDS011;9124;48.144;17.098;2022-09-20T22:34:52;4.10;;;2.35;;
17997;SDS011;9124;48.144;17.098;2022-09-20T22:38:29;2.65;;;2.38;;
17997;SDS011;9124;48.144;17.098;2022-09-20T22:42:06;2.65;;;2.50;;
17997;SDS011;9124;48.144;17.098;2022-09-20T22:45:43;2.53;;;2.40;;
17997;SDS011;9124;48.144;17.098;2022-09-20T22:49:19;4.35;;;2.53;;
17997;SDS011;9124;48.144;17.098;2022-09-20T22:52:56;2.60;;;2.40;;
17997;SDS011;9124;48.144;17.098;2022-09-20T22:56:33;2.45;;;2.28;;
17997;SDS011;9124;48.144;17.098;2022-09-20T23:00:11;2.92;;;2.70;;
17997;SDS011;9124;48.144;17.098;2022-09-20T23:03:55;5.10;;;3.10;;
17997;SDS011;9124;48.144;17.098;2022-09-20T23:07:33;3.15;;;2.95;;
17997;SDS011;9124;48.144;17.098;2022-09-20T23:11:10;3.40;;;2.72;;
17997;SDS011;9124;48.144;17.098;2022-09-20T23:14:47;5.32;;;3.05;;
17997;SDS011;9124;48.144;17.098;2022-09-20T23:18:23;3.65;;;3.00;;
17997;SDS011;9124;48.144;17.098;2022-09-20T23:22:00;4.10;;;2.88;;
17997;SDS011;9124;48.144;17.098;2022-09-20T23:25:37;3.58;;;2.58;;
17997;SDS011;9124;48.144;17.098;2022-09-20T23:29:14;2.80;;;2.55;;
17997;SDS011;9124;48.144;17.098;2022-09-20T23:32:52;3.08;;;2.67;;
17997;SDS011;9124;48.144;17.098;2022-09-20T23:36:30;3.00;;;2.80;;
17997;SDS011;9124;48.144;17.098;2022-09-20T23:40:09;4.10;;;2.90;;
17997;SDS011;9124;48.144;17.098;2022-09-20T23:43:46;3.15;;;2.95;;
17997;SDS011;9124;48.144;17.098;2022-09-20T23:47:23;2.90;;;2.70;;
17997;SDS011;9124;48.144;17.098;2022-09-20T23:51:00;3.50;;;3.30;;
17997;SDS011;9124;48.144;17.098;2022-09-20T23:54:37;3.28;;;2.97;;
17997;SDS011;9124;48.144;17.098;2022-09-20T23:58:15;3.40;;;3.20;;
